Time;durP1;ratioP1;P1;durP2;ratioP2;P2;SDS_P1;SDS_P2;PMS_P1;PMS_P2;Temp;Humidity;BMP_temperature;BMP_pressure;BME280_temperature;BME280_humidity;BME280_pressure;Samples;Min_cycle;Max_cycle;Signal;HPM_P1;HPM_P2
2021/09/06 00:00:27;;;;;;;38.85;22.83;;;15.40;99.90;;;;;;4985865;28;20045;-86
2021/09/06 00:02:53;;;;;;;38.85;23.02;;;15.40;99.90;;;;;;4974137;28;20664;-85
2021/09/06 00:05:18;;;;;;;36.88;21.85;;;15.40;99.90;;;;;;4998799;28;20054;-85
2021/09/06 00:07:46;;;;;;;35.35;22.25;;;15.40;99.90;;;;;;5013589;28;20041;-86
2021/09/06 00:10:29;;;;;;;35.55;21.38;;;15.30;99.90;;;;;;4981666;28;20321;-85
2021/09/06 00:12:55;;;;;;;36.97;22.83;;;15.30;99.90;;;;;;4997742;28;20161;-85
2021/09/06 00:15:20;;;;;;;37.17;22.65;;;15.30;99.90;;;;;;4997909;28;20121;-86
2021/09/06 00:17:46;;;;;;;41.35;23.15;;;15.30;99.90;;;;;;5000022;28;20649;-87
2021/09/06 00:20:12;;;;;;;37.10;23.45;;;15.20;99.90;;;;;;5001010;28;20114;-86
2021/09/06 00:22:37;;;;;;;35.90;21.63;;;15.20;99.90;;;;;;4997824;28;20425;-86
2021/09/06 00:25:03;;;;;;;45.13;23.75;;;15.20;99.90;;;;;;4981993;28;20732;-86
2021/09/06 00:27:28;;;;;;;41.53;24.00;;;15.20;99.90;;;;;;4997869;28;20054;-85
2021/09/06 00:29:54;;;;;;;44.38;25.55;;;15.20;99.90;;;;;;4998685;28;20421;-87
2021/09/06 00:32:19;;;;;;;41.33;23.40;;;15.20;99.90;;;;;;4989866;28;20048;-87
2021/09/06 00:34:45;;;;;;;45.33;26.30;;;15.20;99.90;;;;;;5014177;28;20050;-86
2021/09/06 00:37:10;;;;;;;50.17;25.13;;;15.20;99.90;;;;;;4982031;28;20111;-85
2021/09/06 00:39:36;;;;;;;38.13;22.55;;;15.20;99.90;;;;;;5013794;28;20039;-85
2021/09/06 00:42:01;;;;;;;39.25;23.35;;;15.20;99.90;;;;;;4980188;28;20065;-84
2021/09/06 00:44:27;;;;;;;36.40;22.27;;;15.20;99.90;;;;;;4997940;28;20271;-85
2021/09/06 00:46:52;;;;;;;40.22;23.23;;;15.10;99.90;;;;;;4997446;28;20317;-84
2021/09/06 00:49:19;;;;;;;42.70;25.58;;;15.10;99.90;;;;;;4997302;28;20132;-86
2021/09/06 00:51:46;;;;;;;34.22;22.83;;;15.10;99.90;;;;;;4980653;28;20118;-85
2021/09/06 00:54:13;;;;;;;39.78;23.85;;;15.10;99.90;;;;;;4985658;28;20038;-86
2021/09/06 00:56:38;;;;;;;39.10;23.25;;;15.10;99.90;;;;;;4981382;28;20039;-86
2021/09/06 00:59:04;;;;;;;39.53;24.45;;;15.10;99.90;;;;;;5000467;28;20048;-86
2021/09/06 01:01:29;;;;;;;43.97;25.35;;;15.00;99.90;;;;;;4997320;28;20056;-86
2021/09/06 01:03:55;;;;;;;44.50;26.40;;;15.00;99.90;;;;;;4983661;28;20042;-85
2021/09/06 01:06:20;;;;;;;49.50;26.08;;;15.00;99.90;;;;;;4986457;28;20081;-86
2021/09/06 01:08:46;;;;;;;49.13;29.15;;;15.00;99.90;;;;;;5000505;28;20117;-86
2021/09/06 01:11:12;;;;;;;54.83;30.67;;;14.90;99.90;;;;;;5013084;28;20042;-86
2021/09/06 01:13:37;;;;;;;51.33;28.23;;;14.90;99.90;;;;;;4981336;28;20052;-86
2021/09/06 01:16:03;;;;;;;53.72;30.13;;;15.00;99.90;;;;;;4980753;28;20378;-86
2021/09/06 01:18:29;;;;;;;52.17;28.40;;;14.90;99.90;;;;;;4992081;28;20043;-86
2021/09/06 01:20:54;;;;;;;47.40;27.02;;;14.90;99.90;;;;;;5002869;28;20408;-86
2021/09/06 01:23:20;;;;;;;55.75;28.42;;;14.90;99.90;;;;;;5008002;28;20118;-85
2021/09/06 01:25:49;;;;;;;53.22;29.40;;;14.90;99.90;;;;;;5013276;28;20046;-85
2021/09/06 01:28:15;;;;;;;53.58;27.67;;;14.90;99.90;;;;;;4996012;28;20048;-86
2021/09/06 01:30:41;;;;;;;46.92;27.20;;;14.90;99.90;;;;;;4980511;28;20271;-86
2021/09/06 01:33:06;;;;;;;60.05;31.63;;;14.90;99.90;;;;;;4996364;28;20050;-86
2021/09/06 01:35:32;;;;;;;57.03;30.13;;;14.80;99.90;;;;;;5007102;28;20034;-86
2021/09/06 01:37:58;;;;;;;51.50;28.90;;;14.80;99.90;;;;;;4998018;28;20053;-86
2021/09/06 01:40:25;;;;;;;54.22;30.00;;;14.80;99.90;;;;;;4997137;28;20035;-85
2021/09/06 01:42:51;;;;;;;55.45;32.20;;;14.80;99.90;;;;;;4995607;28;20045;-86
2021/09/06 01:45:17;;;;;;;56.67;30.73;;;14.80;99.90;;;;;;4980267;28;20040;-86
2021/09/06 01:47:42;;;;;;;58.28;30.65;;;14.80;99.90;;;;;;4965957;28;20047;-85
2021/09/06 01:50:09;;;;;;;55.08;31.17;;;14.70;99.90;;;;;;4996816;28;20048;-86
2021/09/06 01:52:34;;;;;;;60.58;31.98;;;14.70;99.90;;;;;;5004465;28;20038;-88
2021/09/06 01:55:00;;;;;;;56.92;31.65;;;14.70;99.90;;;;;;5022666;28;20038;-87
2021/09/06 01:57:25;;;;;;;56.80;31.73;;;14.70;99.90;;;;;;4981306;28;20092;-86
2021/09/06 01:59:51;;;;;;;62.45;32.90;;;14.70;99.90;;;;;;4996512;28;20081;-86
2021/09/06 02:02:16;;;;;;;52.78;29.20;;;14.70;99.90;;;;;;4983232;28;20043;-86
2021/09/06 02:04:42;;;;;;;59.58;30.85;;;14.60;99.90;;;;;;4996525;28;20408;-87
2021/09/06 02:07:07;;;;;;;50.45;29.63;;;14.60;99.90;;;;;;4975859;28;20049;-86
2021/09/06 02:09:33;;;;;;;53.42;31.25;;;14.60;99.90;;;;;;4996473;28;20046;-85
2021/09/06 02:11:59;;;;;;;60.75;33.40;;;14.60;99.90;;;;;;4974037;28;20050;-86
2021/09/06 02:14:24;;;;;;;57.50;30.63;;;14.60;99.90;;;;;;4996184;28;20290;-86
2021/09/06 02:16:50;;;;;;;54.53;31.45;;;14.50;99.90;;;;;;4995819;28;20057;-86
2021/09/06 02:19:15;;;;;;;56.97;32.15;;;14.50;99.90;;;;;;4995438;28;20042;-87
2021/09/06 02:21:41;;;;;;;55.65;30.98;;;14.50;99.90;;;;;;4995445;28;20133;-85
2021/09/06 02:24:07;;;;;;;46.20;29.20;;;14.50;99.90;;;;;;4979064;28;20057;-86
2021/09/06 02:26:33;;;;;;;56.00;31.25;;;14.50;99.90;;;;;;4995414;28;20398;-86
2021/09/06 02:28:59;;;;;;;52.55;30.45;;;14.50;99.90;;;;;;4998040;28;20038;-85
2021/09/06 02:31:24;;;;;;;53.30;31.33;;;14.40;99.90;;;;;;5006656;28;20044;-86
2021/09/06 02:33:50;;;;;;;47.22;28.23;;;14.40;99.90;;;;;;5003442;28;20061;-85
2021/09/06 02:36:15;;;;;;;53.10;30.40;;;14.50;99.90;;;;;;4996001;28;20042;-85
2021/09/06 02:38:41;;;;;;;49.95;29.50;;;14.40;99.90;;;;;;4981774;28;20034;-84
2021/09/06 02:41:06;;;;;;;50.13;28.25;;;14.40;99.90;;;;;;5002925;28;20104;-86
2021/09/06 02:43:32;;;;;;;49.28;27.25;;;14.40;99.90;;;;;;5018051;28;20117;-86
2021/09/06 02:45:57;;;;;;;55.13;28.00;;;14.30;99.90;;;;;;4991166;28;20054;-86
2021/09/06 02:48:24;;;;;;;52.33;28.80;;;14.30;99.90;;;;;;4975501;28;20528;-86
2021/09/06 02:50:49;;;;;;;52.15;28.98;;;14.30;99.90;;;;;;5002576;28;20041;-86
2021/09/06 02:53:14;;;;;;;54.22;28.83;;;14.30;99.90;;;;;;4985609;28;20038;-86
2021/09/06 02:55:40;;;;;;;48.25;27.55;;;14.30;99.90;;;;;;4995878;28;20042;-88
2021/09/06 02:58:05;;;;;;;50.78;29.52;;;14.30;99.90;;;;;;4985221;28;20133;-86
2021/09/06 03:00:31;;;;;;;51.78;29.48;;;14.30;99.90;;;;;;5003082;28;20073;-87
2021/09/06 03:02:57;;;;;;;50.35;28.20;;;14.30;99.90;;;;;;5000951;28;20035;-87
2021/09/06 03:05:22;;;;;;;46.20;27.08;;;14.20;99.90;;;;;;5004932;28;20034;-86
2021/09/06 03:07:48;;;;;;;49.90;27.70;;;14.20;99.90;;;;;;5002437;28;20370;-85
2021/09/06 03:10:13;;;;;;;48.60;28.20;;;14.20;99.90;;;;;;5001849;28;20390;-86
2021/09/06 03:12:39;;;;;;;50.85;28.00;;;14.20;99.90;;;;;;4982250;28;20042;-86
2021/09/06 03:15:05;;;;;;;42.97;26.65;;;14.20;99.90;;;;;;5002615;28;20038;-84
2021/09/06 03:17:30;;;;;;;44.78;25.42;;;14.20;99.90;;;;;;4985292;28;20038;-84
2021/09/06 03:19:56;;;;;;;50.30;27.85;;;14.20;99.90;;;;;;4986179;28;20451;-85
2021/09/06 03:22:22;;;;;;;46.42;27.00;;;14.20;99.90;;;;;;5002599;28;20026;-86
2021/09/06 03:24:47;;;;;;;49.00;27.10;;;14.10;99.90;;;;;;5018095;28;20034;-85
2021/09/06 03:27:14;;;;;;;45.78;25.83;;;14.10;99.90;;;;;;4973204;28;20402;-86
2021/09/06 03:29:39;;;;;;;47.17;28.25;;;14.10;99.90;;;;;;5013223;28;20049;-86
2021/09/06 03:32:05;;;;;;;44.65;25.92;;;14.00;99.90;;;;;;4984661;28;20108;-85
2021/09/06 03:34:31;;;;;;;45.75;26.65;;;14.00;99.90;;;;;;4991186;28;20046;-85
2021/09/06 03:36:56;;;;;;;48.58;26.60;;;14.00;99.90;;;;;;5006986;28;20211;-86
2021/09/06 03:39:22;;;;;;;46.92;27.20;;;14.00;99.90;;;;;;4985817;28;20045;-85
2021/09/06 03:41:47;;;;;;;45.88;25.85;;;14.00;99.90;;;;;;4976124;28;20035;-85
2021/09/06 03:44:13;;;;;;;44.10;25.13;;;14.00;99.90;;;;;;5002333;28;20045;-86
2021/09/06 03:46:38;;;;;;;41.72;24.88;;;14.00;99.90;;;;;;4984734;28;20305;-86
2021/09/06 03:49:05;;;;;;;44.10;23.92;;;14.00;99.90;;;;;;4983599;28;20143;-85
2021/09/06 03:51:30;;;;;;;47.80;24.83;;;13.90;99.90;;;;;;4998360;28;20106;-86
2021/09/06 03:53:56;;;;;;;43.53;24.20;;;13.90;99.90;;;;;;5005145;28;20042;-86
2021/09/06 03:56:21;;;;;;;49.63;24.75;;;13.90;99.90;;;;;;4999990;28;20397;-86
2021/09/06 03:58:47;;;;;;;39.80;23.52;;;13.90;99.90;;;;;;4978611;28;20081;-87
2021/09/06 04:01:13;;;;;;;44.15;24.50;;;13.90;99.90;;;;;;4993958;28;20109;-86
2021/09/06 04:03:39;;;;;;;44.75;24.70;;;13.80;99.90;;;;;;4994866;28;20062;-87
2021/09/06 04:06:04;;;;;;;43.10;24.50;;;13.80;99.90;;;;;;4985548;28;20397;-86
2021/09/06 04:08:30;;;;;;;45.10;25.02;;;13.80;99.90;;;;;;4983043;28;20362;-86
2021/09/06 04:10:55;;;;;;;44.90;25.88;;;13.80;99.90;;;;;;4997596;28;20048;-84
2021/09/06 04:13:21;;;;;;;33.95;22.45;;;13.80;99.90;;;;;;4999114;28;20113;-86
2021/09/06 04:15:47;;;;;;;39.13;22.90;;;13.80;99.90;;;;;;4990859;28;20077;-85
2021/09/06 04:18:15;;;;;;;42.45;23.73;;;13.70;99.90;;;;;;4995405;28;20030;-86
2021/09/06 04:20:40;;;;;;;45.67;25.92;;;13.70;99.90;;;;;;4994984;28;20058;-86
2021/09/06 04:23:06;;;;;;;38.55;21.98;;;13.70;99.90;;;;;;4997114;28;20038;-86
2021/09/06 04:25:31;;;;;;;46.95;26.48;;;13.70;99.90;;;;;;4984015;28;20038;-85
2021/09/06 04:27:57;;;;;;;43.83;24.00;;;13.70;99.90;;;;;;5009244;28;20074;-84
2021/09/06 04:30:23;;;;;;;46.22;24.73;;;13.70;99.90;;;;;;4986800;28;20049;-86
2021/09/06 04:32:48;;;;;;;38.85;23.08;;;13.70;99.90;;;;;;4982250;28;20038;-85
2021/09/06 04:35:14;;;;;;;44.85;23.48;;;13.60;99.90;;;;;;4981707;28;20069;-85
2021/09/06 04:37:39;;;;;;;41.42;23.67;;;13.60;99.90;;;;;;4970263;28;20373;-86
2021/09/06 04:40:05;;;;;;;38.78;22.85;;;13.60;99.90;;;;;;5000490;28;20038;-85
2021/09/06 04:42:31;;;;;;;41.17;21.63;;;13.60;99.90;;;;;;4979697;28;20034;-86
2021/09/06 04:44:56;;;;;;;36.10;21.42;;;13.60;99.90;;;;;;4988167;28;20049;-87
2021/09/06 04:47:22;;;;;;;36.83;22.08;;;13.60;99.90;;;;;;4995187;28;20038;-86
2021/09/06 04:49:47;;;;;;;37.88;22.33;;;13.60;99.90;;;;;;4977607;28;20386;-86
2021/09/06 04:52:13;;;;;;;37.75;22.40;;;13.60;99.90;;;;;;4978093;28;20038;-86
2021/09/06 04:54:39;;;;;;;41.65;24.42;;;13.60;99.90;;;;;;4996458;28;20104;-86
2021/09/06 04:57:04;;;;;;;47.58;24.83;;;13.60;99.90;;;;;;4995087;28;20057;-86
2021/09/06 04:59:30;;;;;;;43.90;23.20;;;13.60;99.90;;;;;;4994594;28;20042;-86
2021/09/06 05:01:55;;;;;;;37.92;23.45;;;13.60;99.90;;;;;;4976779;28;20038;-85
2021/09/06 05:04:21;;;;;;;40.03;22.42;;;13.60;99.90;;;;;;4995848;28;20267;-85
2021/09/06 05:06:46;;;;;;;40.97;22.90;;;13.60;99.90;;;;;;4993267;28;20072;-87
2021/09/06 05:09:12;;;;;;;41.58;23.77;;;13.60;99.90;;;;;;4994635;28;20049;-86
2021/09/06 05:11:37;;;;;;;40.28;23.45;;;13.60;99.90;;;;;;4994788;28;20046;-85
2021/09/06 05:14:03;;;;;;;44.90;24.30;;;13.70;99.90;;;;;;4978703;28;20046;-85
2021/09/06 05:16:28;;;;;;;42.60;24.05;;;13.70;99.90;;;;;;4977552;28;20057;-85
2021/09/06 05:18:54;;;;;;;38.17;22.55;;;13.80;99.90;;;;;;4978467;28;20038;-87
2021/09/06 05:21:20;;;;;;;41.85;23.83;;;13.80;99.90;;;;;;4980363;28;20038;-86
2021/09/06 05:23:46;;;;;;;45.38;24.52;;;13.90;99.90;;;;;;4978652;28;20045;-85
2021/09/06 05:26:12;;;;;;;45.75;24.83;;;14.00;99.90;;;;;;4997192;28;20520;-85
2021/09/06 05:28:37;;;;;;;43.38;23.50;;;14.00;99.90;;;;;;4987533;28;20053;-86
2021/09/06 05:31:05;;;;;;;39.35;23.17;;;14.10;99.90;;;;;;4981424;28;20541;-84
2021/09/06 05:33:31;;;;;;;36.03;21.75;;;14.10;99.90;;;;;;4994865;28;20034;-86
2021/09/06 05:35:57;;;;;;;38.47;20.50;;;14.10;99.90;;;;;;4993597;28;20045;-86
2021/09/06 05:38:22;;;;;;;33.08;21.17;;;14.20;99.90;;;;;;4994146;28;20045;-84
2021/09/06 05:40:48;;;;;;;33.58;20.08;;;14.20;99.90;;;;;;4976258;28;20030;-86
2021/09/06 05:43:14;;;;;;;35.00;21.33;;;14.20;99.90;;;;;;4977019;28;20035;-85
2021/09/06 05:45:40;;;;;;;37.80;22.80;;;14.20;99.90;;;;;;4993353;28;20057;-86
2021/09/06 05:48:06;;;;;;;41.65;23.42;;;14.20;99.90;;;;;;4976418;28;20457;-85
2021/09/06 05:50:31;;;;;;;41.90;24.33;;;14.30;99.90;;;;;;4993376;28;20048;-86
2021/09/06 05:52:57;;;;;;;43.58;23.73;;;14.20;99.90;;;;;;4974864;28;20062;-87
2021/09/06 05:55:23;;;;;;;40.17;23.48;;;14.30;99.90;;;;;;4986624;28;20042;-85
2021/09/06 05:57:48;;;;;;;35.08;21.33;;;14.30;99.90;;;;;;4976652;28;20050;-85
2021/09/06 06:00:14;;;;;;;41.53;23.05;;;14.30;99.90;;;;;;4978226;28;20105;-86
2021/09/06 06:02:40;;;;;;;41.35;24.42;;;14.40;99.90;;;;;;4994379;28;20053;-85
2021/09/06 06:05:06;;;;;;;39.17;23.02;;;14.40;99.90;;;;;;4994658;28;20038;-86
2021/09/06 06:07:32;;;;;;;37.97;23.77;;;14.40;99.90;;;;;;4997326;28;20109;-87
2021/09/06 06:10:00;;;;;;;40.90;23.33;;;14.50;99.90;;;;;;4995817;28;20045;-86
2021/09/06 06:12:27;;;;;;;38.95;22.80;;;14.40;99.90;;;;;;4977269;28;20073;-85
2021/09/06 06:14:54;;;;;;;37.92;23.67;;;14.50;99.90;;;;;;4990799;28;20045;-85
2021/09/06 06:17:20;;;;;;;39.83;23.92;;;14.50;99.90;;;;;;4991814;28;20045;-86
2021/09/06 06:19:46;;;;;;;38.00;22.23;;;14.60;99.90;;;;;;4992300;28;20121;-86
2021/09/06 06:22:12;;;;;;;39.50;22.98;;;14.60;99.90;;;;;;4975895;28;20089;-84
2021/09/06 06:24:37;;;;;;;46.75;25.02;;;14.60;99.90;;;;;;4992823;28;20041;-86
2021/09/06 06:27:03;;;;;;;40.85;23.20;;;14.60;99.90;;;;;;4988761;28;20121;-85
2021/09/06 06:29:29;;;;;;;34.20;23.13;;;14.70;99.90;;;;;;4986496;28;20056;-85
2021/09/06 06:31:55;;;;;;;41.95;22.92;;;14.70;99.90;;;;;;4982520;28;20045;-85
2021/09/06 06:34:20;;;;;;;35.00;22.70;;;14.70;99.90;;;;;;4989643;28;20042;-85
2021/09/06 06:36:46;;;;;;;34.45;21.95;;;14.80;99.90;;;;;;4998769;28;20038;-86
2021/09/06 06:39:11;;;;;;;33.22;21.65;;;14.80;99.90;;;;;;4984841;28;20125;-87
2021/09/06 06:41:37;;;;;;;34.78;22.52;;;14.90;99.90;;;;;;4987578;28;20038;-86
2021/09/06 06:44:04;;;;;;;34.95;21.60;;;15.00;99.90;;;;;;4987816;28;20109;-86
2021/09/06 06:46:30;;;;;;;33.47;21.88;;;15.00;99.90;;;;;;4989405;28;20041;-86
2021/09/06 06:48:56;;;;;;;35.70;21.50;;;15.00;99.90;;;;;;5003837;28;20122;-87
2021/09/06 06:51:22;;;;;;;36.45;21.23;;;15.10;99.90;;;;;;4983432;28;20162;-85
2021/09/06 06:53:47;;;;;;;37.40;20.77;;;15.10;99.90;;;;;;4986007;28;20084;-85
2021/09/06 06:56:13;;;;;;;36.60;22.63;;;15.20;99.90;;;;;;4986659;28;20054;-86
2021/09/06 06:58:39;;;;;;;36.03;21.05;;;15.20;99.90;;;;;;4982612;28;20097;-85
2021/09/06 07:01:04;;;;;;;33.70;20.85;;;15.20;99.90;;;;;;4980836;28;20046;-85
2021/09/06 07:03:30;;;;;;;35.60;21.65;;;15.30;99.90;;;;;;4983824;28;20039;-85
2021/09/06 07:05:55;;;;;;;35.33;21.17;;;15.40;99.90;;;;;;5000840;28;20050;-85
2021/09/06 07:08:21;;;;;;;35.03;21.17;;;15.40;99.90;;;;;;4989320;28;20126;-85
2021/09/06 07:10:47;;;;;;;34.63;21.33;;;15.50;99.90;;;;;;4989042;28;20046;-85
2021/09/06 07:13:13;;;;;;;32.15;19.80;;;15.50;99.90;;;;;;4989011;28;20038;-84
2021/09/06 07:15:39;;;;;;;37.15;21.13;;;15.60;99.90;;;;;;4991671;28;20321;-85
2021/09/06 07:18:07;;;;;;;36.10;21.10;;;15.60;99.90;;;;;;4986462;28;20050;-84
2021/09/06 07:20:33;;;;;;;40.10;22.50;;;15.70;99.90;;;;;;5005900;28;20035;-85
2021/09/06 07:22:59;;;;;;;33.75;20.30;;;15.70;99.90;;;;;;4982262;28;20472;-85
2021/09/06 07:25:24;;;;;;;34.15;21.58;;;15.80;99.90;;;;;;4976341;28;20085;-84
2021/09/06 07:27:50;;;;;;;32.33;20.55;;;15.90;99.90;;;;;;4985300;28;20242;-84
2021/09/06 07:30:16;;;;;;;29.20;20.27;;;15.90;99.90;;;;;;4994165;28;20042;-85
2021/09/06 07:32:41;;;;;;;34.92;21.30;;;16.00;99.90;;;;;;4991763;28;20047;-85
2021/09/06 07:35:07;;;;;;;33.88;20.92;;;16.10;99.90;;;;;;5009783;28;20070;-85
2021/09/06 07:37:32;;;;;;;33.13;20.17;;;16.10;99.90;;;;;;5002875;28;20472;-85
2021/09/06 07:39:58;;;;;;;30.52;20.38;;;16.20;99.90;;;;;;5005117;28;20030;-84
2021/09/06 07:42:24;;;;;;;29.63;19.83;;;16.30;99.90;;;;;;4991180;28;20146;-85
2021/09/06 07:44:50;;;;;;;31.30;19.98;;;16.30;99.90;;;;;;4990077;28;20043;-85
2021/09/06 07:47:15;;;;;;;30.27;20.05;;;16.50;99.90;;;;;;4977085;28;20082;-84
2021/09/06 07:49:42;;;;;;;36.05;21.17;;;16.50;99.60;;;;;;4988974;28;20042;-84
2021/09/06 07:52:08;;;;;;;34.53;21.33;;;16.60;99.70;;;;;;4989563;28;20042;-86
2021/09/06 07:54:33;;;;;;;29.48;20.55;;;16.70;99.60;;;;;;4985066;28;20050;-85
2021/09/06 07:56:59;;;;;;;30.42;21.08;;;16.70;99.70;;;;;;4993092;28;20615;-86
2021/09/06 07:59:24;;;;;;;34.15;19.67;;;16.80;99.60;;;;;;4992373;28;20165;-85
2021/09/06 08:01:50;;;;;;;28.20;20.13;;;16.90;99.60;;;;;;5004138;28;20070;-86
2021/09/06 08:04:15;;;;;;;32.35;19.38;;;17.00;99.50;;;;;;4994248;28;20030;-85
2021/09/06 08:06:41;;;;;;;31.30;19.85;;;17.20;99.10;;;;;;4982485;28;20043;-85
2021/09/06 08:09:07;;;;;;;30.25;19.25;;;17.30;99.00;;;;;;4989005;28;20050;-85
2021/09/06 08:11:33;;;;;;;30.73;20.25;;;17.40;99.10;;;;;;4981729;28;20043;-87
2021/09/06 08:13:59;;;;;;;31.90;19.13;;;17.50;98.80;;;;;;4993114;28;20042;-85
2021/09/06 08:16:25;;;;;;;28.38;19.00;;;17.60;98.60;;;;;;5013455;28;20192;-85
2021/09/06 08:18:51;;;;;;;24.10;17.13;;;17.80;98.50;;;;;;4979321;28;20038;-84
2021/09/06 08:21:17;;;;;;;29.60;19.48;;;17.90;98.20;;;;;;5012371;28;20390;-86
2021/09/06 08:23:43;;;;;;;28.45;18.70;;;18.10;98.00;;;;;;4985720;28;20124;-87
2021/09/06 08:26:09;;;;;;;26.13;17.15;;;18.20;97.80;;;;;;4984061;28;20038;-86
2021/09/06 08:28:35;;;;;;;30.38;18.15;;;18.30;97.70;;;;;;4978337;28;20038;-86
2021/09/06 08:31:00;;;;;;;27.27;18.10;;;18.50;97.60;;;;;;4979232;28;20329;-86
2021/09/06 08:33:26;;;;;;;31.65;17.67;;;18.60;97.60;;;;;;4979495;28;20086;-86
2021/09/06 08:35:52;;;;;;;29.73;18.15;;;18.80;96.50;;;;;;4995398;28;20694;-86
2021/09/06 08:38:18;;;;;;;29.88;18.42;;;18.90;96.70;;;;;;4978187;28;20046;-86
2021/09/06 08:40:44;;;;;;;25.83;17.85;;;19.10;96.40;;;;;;4983658;28;20139;-87
2021/09/06 08:43:10;;;;;;;28.20;18.25;;;19.20;96.40;;;;;;4982210;28;20046;-87
2021/09/06 08:45:36;;;;;;;23.90;16.65;;;19.40;96.20;;;;;;5012410;28;20073;-85
2021/09/06 08:48:03;;;;;;;23.75;17.10;;;19.50;95.80;;;;;;4979444;28;20050;-86
2021/09/06 08:50:29;;;;;;;27.15;17.55;;;19.70;95.70;;;;;;5011616;28;20627;-86
2021/09/06 08:52:55;;;;;;;26.48;16.92;;;19.80;96.10;;;;;;5011565;28;20034;-86
2021/09/06 08:55:21;;;;;;;26.45;16.65;;;20.00;95.30;;;;;;4996830;28;20457;-86
2021/09/06 08:57:46;;;;;;;27.30;18.25;;;20.10;95.20;;;;;;5011082;28;20464;-86
2021/09/06 09:00:13;;;;;;;24.40;16.77;;;20.30;95.10;;;;;;5011520;28;20038;-86
2021/09/06 09:02:42;;;;;;;27.98;16.98;;;20.40;94.40;;;;;;5011055;28;20062;-85
2021/09/06 09:05:10;;;;;;;23.63;15.65;;;20.50;94.40;;;;;;4996758;28;20048;-86
2021/09/06 09:07:39;;;;;;;23.33;15.95;;;20.60;94.70;;;;;;4996364;28;20045;-86
2021/09/06 09:10:09;;;;;;;24.02;15.48;;;20.70;94.20;;;;;;4995615;28;20045;-87
2021/09/06 09:12:37;;;;;;;25.73;16.10;;;20.90;94.00;;;;;;4995591;28;20038;-85
2021/09/06 09:15:03;;;;;;;24.77;15.77;;;21.00;93.50;;;;;;4996273;28;20038;-85
2021/09/06 09:17:28;;;;;;;22.65;14.07;;;21.10;93.80;;;;;;4994466;28;20042;-87
2021/09/06 09:20:00;;;;;;;20.88;14.88;;;21.20;93.70;;;;;;4978294;28;20405;-86
2021/09/06 09:22:30;;;;;;;20.83;14.63;;;21.40;92.70;;;;;;4978396;28;20044;-87
2021/09/06 09:25:05;;;;;;;23.45;15.70;;;21.40;92.60;;;;;;5010276;28;20038;-87
2021/09/06 09:27:37;;;;;;;21.90;14.98;;;21.40;92.30;;;;;;4994369;28;20132;-86
2021/09/06 09:30:05;;;;;;;23.30;15.25;;;21.50;92.30;;;;;;4994944;28;20133;-86
2021/09/06 09:32:35;;;;;;;18.92;12.38;;;21.60;92.60;;;;;;4984484;28;20042;-87
2021/09/06 09:35:04;;;;;;;21.58;14.07;;;21.70;92.80;;;;;;4985218;28;20042;-86
2021/09/06 09:37:30;;;;;;;21.17;14.98;;;21.80;91.80;;;;;;4981331;28;20448;-87
2021/09/06 09:39:57;;;;;;;20.90;14.75;;;21.90;91.70;;;;;;5005068;28;20121;-87
2021/09/06 09:42:23;;;;;;;22.55;14.90;;;22.00;91.90;;;;;;4987889;28;20045;-89
2021/09/06 09:44:52;;;;;;;23.63;15.27;;;22.20;91.70;;;;;;4995181;28;20038;-86
2021/09/06 09:47:23;;;;;;;24.30;15.13;;;22.30;91.30;;;;;;4983703;28;20048;-86
2021/09/06 09:49:49;;;;;;;19.80;14.60;;;22.40;91.60;;;;;;4985641;28;20041;-86
2021/09/06 09:52:16;;;;;;;20.45;14.07;;;22.50;91.70;;;;;;4987737;28;20038;-86
2021/09/06 09:54:42;;;;;;;19.77;14.32;;;22.60;91.60;;;;;;5001756;28;20034;-87
2021/09/06 09:57:07;;;;;;;21.48;13.95;;;22.60;90.90;;;;;;4982537;28;20049;-86
2021/09/06 09:59:33;;;;;;;20.92;14.68;;;22.70;90.90;;;;;;4986439;28;20074;-87
2021/09/06 10:02:23;;;;;;;20.48;14.95;;;22.80;90.90;;;;;;4983096;28;20047;-87
2021/09/06 10:04:54;;;;;;;22.42;14.20;;;22.90;90.60;;;;;;4988447;28;20077;-85
2021/09/06 10:07:23;;;;;;;20.42;12.68;;;22.90;90.40;;;;;;4991768;28;20196;-86
2021/09/06 10:09:49;;;;;;;20.52;12.95;;;23.00;89.60;;;;;;4991511;28;20072;-87
2021/09/06 10:12:28;;;;;;;22.48;14.10;;;23.10;89.30;;;;;;4977799;28;20070;-88
2021/09/06 10:15:00;;;;;;;18.52;13.00;;;23.20;89.40;;;;;;4985993;28;20042;-87
2021/09/06 10:17:38;;;;;;;17.13;12.40;;;23.20;90.20;;;;;;5005960;28;20062;-88
2021/09/06 10:20:17;;;;;;;21.95;13.05;;;23.30;88.60;;;;;;4988469;28;20038;-87
2021/09/06 10:22:44;;;;;;;18.30;11.93;;;23.30;89.90;;;;;;4976990;28;20070;-88
2021/09/06 10:25:17;;;;;;;21.70;14.23;;;23.40;90.00;;;;;;4985071;28;20053;-87
2021/09/06 10:27:58;;;;;;;;;;;23.50;90.20;;;;;;4973696;28;20572;-86
2021/09/06 10:30:48;;;;;;;18.02;12.70;;;23.50;88.20;;;;;;4985620;28;19921;-87
2021/09/06 10:33:33;;;;;;;17.17;11.43;;;23.60;87.10;;;;;;4990139;28;20311;-88
2021/09/06 10:36:03;;;;;;;18.30;13.10;;;23.70;87.20;;;;;;5008998;28;20492;-86
2021/09/06 10:38:51;;;;;;;15.40;11.60;;;23.80;86.10;;;;;;5006090;28;20042;-86
2021/09/06 10:41:23;;;;;;;16.17;11.00;;;24.00;87.70;;;;;;4990440;28;20069;-86
2021/09/06 10:43:49;;;;;;;;;;;24.10;87.10;;;;;;4994352;28;20112;-87
2021/09/06 10:46:15;;;;;;;17.33;12.25;;;24.20;83.10;;;;;;5002812;28;19918;-89
2021/09/06 10:48:41;;;;;;;18.45;12.30;;;24.20;84.70;;;;;;5008047;28;20310;-87
2021/09/06 10:51:09;;;;;;;17.10;11.07;;;24.30;82.90;;;;;;4972820;28;20045;-86
2021/09/06 10:53:37;;;;;;;14.65;11.73;;;24.30;84.30;;;;;;4993334;28;20034;-87
2021/09/06 10:56:04;;;;;;;16.15;12.07;;;24.40;84.70;;;;;;4986248;28;20047;-87
2021/09/06 10:58:30;;;;;;;15.82;11.55;;;24.50;85.40;;;;;;5001227;28;21404;-86
2021/09/06 11:00:59;;;;;;;18.42;11.38;;;24.60;82.90;;;;;;4988878;28;20061;-88
2021/09/06 11:03:34;;;;;;;13.80;9.55;;;24.70;82.90;;;;;;4994785;28;20084;-88
2021/09/06 11:06:02;;;;;;;15.48;10.68;;;24.80;82.20;;;;;;4992456;28;20064;-88
2021/09/06 11:08:34;;;;;;;15.70;11.23;;;24.90;82.60;;;;;;4989933;28;20080;-88
2021/09/06 11:11:01;;;;;;;15.00;10.43;;;24.90;83.40;;;;;;4989032;28;20085;-88
2021/09/06 11:13:45;;;;;;;14.75;10.70;;;25.00;82.50;;;;;;4985559;28;20045;-87
2021/09/06 11:16:16;;;;;;;13.50;10.07;;;25.10;82.30;;;;;;4993102;28;20039;-90
2021/09/06 11:18:45;;;;;;;15.77;11.05;;;25.20;81.00;;;;;;5008762;28;20038;-86
2021/09/06 11:21:12;;;;;;;13.30;9.77;;;25.30;80.40;;;;;;4991625;28;20122;-87
2021/09/06 11:23:43;;;;;;;15.75;10.40;;;25.40;78.60;;;;;;5007017;28;20553;-86
2021/09/06 11:26:22;;;;;;;14.32;10.05;;;25.50;78.50;;;;;;4975392;28;20128;-88
2021/09/06 11:28:49;;;;;;;14.13;10.32;;;25.50;78.60;;;;;;5010010;28;20038;-87
2021/09/06 11:31:19;;;;;;;16.38;11.40;;;25.60;78.20;;;;;;4984643;28;20039;-87
2021/09/06 11:33:46;;;;;;;14.43;10.30;;;25.70;77.10;;;;;;5006583;28;20402;-88
2021/09/06 11:36:16;;;;;;;15.60;11.35;;;25.70;78.80;;;;;;4984346;28;20034;-88
2021/09/06 11:38:41;;;;;;;15.15;10.57;;;25.70;77.00;;;;;;4996959;28;20062;-88
2021/09/06 11:41:07;;;;;;;11.82;9.23;;;25.70;76.80;;;;;;4998051;28;20072;-87
2021/09/06 11:43:33;;;;;;;11.55;9.23;;;25.70;76.30;;;;;;4990114;28;20126;-86
2021/09/06 11:46:01;;;;;;;15.60;10.15;;;25.80;76.20;;;;;;5010584;28;20118;-88
2021/09/06 11:48:27;;;;;;;13.90;9.85;;;25.90;77.90;;;;;;5003381;28;20049;-86
2021/09/06 11:50:53;;;;;;;13.45;9.32;;;26.00;74.00;;;;;;4976477;28;20038;-89
2021/09/06 11:53:19;;;;;;;13.63;9.80;;;26.00;76.50;;;;;;5008139;28;20039;-88
2021/09/06 11:55:53;;;;;;;11.65;8.77;;;26.10;75.90;;;;;;5007006;28;20070;-85
2021/09/06 11:58:23;;;;;;;11.10;8.98;;;26.20;75.20;;;;;;4990447;28;20048;-88
2021/09/06 12:00:49;;;;;;;14.45;11.27;;;26.30;74.40;;;;;;4992172;28;20038;-88
2021/09/06 12:03:26;;;;;;;15.25;10.43;;;26.40;76.70;;;;;;4979268;28;20053;-88
2021/09/06 12:06:07;;;;;;;16.58;10.75;;;26.40;77.40;;;;;;4988638;28;20037;-88
2021/09/06 12:08:33;;;;;;;13.20;9.73;;;26.50;73.50;;;;;;4993141;28;20050;-88
2021/09/06 12:11:12;;;;;;;12.90;9.52;;;26.60;74.90;;;;;;4987070;28;20112;-88
2021/09/06 12:13:39;;;;;;;13.10;9.70;;;26.60;75.50;;;;;;4994552;28;20052;-88
2021/09/06 12:16:07;;;;;;;14.02;9.18;;;26.70;76.80;;;;;;4991035;28;20572;-87
2021/09/06 12:18:44;;;;;;;12.60;9.77;;;26.80;76.00;;;;;;4992704;28;20053;-88
2021/09/06 12:21:17;;;;;;;13.10;9.55;;;26.90;72.80;;;;;;4990990;28;20049;-88
2021/09/06 12:23:49;;;;;;;13.98;9.57;;;26.90;73.10;;;;;;4991774;28;20049;-88
2021/09/06 12:26:16;;;;;;;14.57;9.73;;;26.90;73.20;;;;;;4987034;28;20519;-88